createdAt,value
2018-04-23T00:01:55.147Z,5.33
2018-04-23T00:04:22.958Z,5.60
2018-04-23T00:06:50.560Z,5.93
2018-04-23T00:09:18.142Z,5.83
2018-04-23T00:11:45.755Z,6.30
2018-04-23T00:14:13.972Z,5.30
2018-04-23T00:16:41.617Z,5.57
2018-04-23T00:19:09.202Z,6.30
2018-04-23T00:21:37.014Z,5.40
2018-04-23T00:24:04.614Z,6.67
2018-04-23T00:26:32.203Z,6.43
2018-04-23T00:28:59.818Z,5.90
2018-04-23T00:31:27.403Z,5.50
2018-04-23T00:33:55.022Z,5.70
2018-04-23T00:36:22.620Z,5.37
2018-04-23T00:38:50.440Z,4.50
2018-04-23T00:41:18.027Z,5.23
2018-04-23T00:43:45.670Z,5.90
2018-04-23T00:46:13.282Z,5.03
2018-04-23T00:48:40.890Z,6.00
2018-04-23T00:51:08.513Z,5.80
2018-04-23T00:53:42.730Z,5.33
2018-04-23T00:56:10.340Z,5.20
2018-04-23T00:58:37.934Z,5.73
2018-04-23T01:01:05.957Z,5.73
2018-04-23T01:03:33.551Z,5.50
2018-04-23T01:06:01.138Z,5.07
2018-04-23T01:08:28.751Z,4.80
2018-04-23T01:10:56.341Z,4.60
2018-04-23T01:13:23.956Z,4.90
2018-04-23T01:15:51.584Z,5.03
2018-04-23T01:18:19.228Z,5.13
2018-04-23T01:20:46.829Z,5.20
2018-04-23T01:23:14.435Z,5.30
2018-04-23T01:25:42.034Z,5.77
2018-04-23T01:28:09.634Z,5.97
2018-04-23T01:30:37.249Z,6.23
2018-04-23T01:33:04.842Z,5.20
2018-04-23T01:35:32.614Z,5.37
2018-04-23T01:38:00.206Z,5.43
2018-04-23T01:40:27.799Z,5.73
2018-04-23T01:42:55.438Z,6.63
2018-04-23T01:45:23.027Z,5.40
2018-04-23T01:47:50.646Z,5.50
2018-04-23T01:50:18.240Z,5.90
2018-04-23T01:52:46.147Z,5.43
2018-04-23T01:55:13.742Z,5.73
2018-04-23T01:57:41.338Z,5.77
2018-04-23T02:00:08.950Z,5.40
2018-04-23T02:02:36.548Z,5.60
2018-04-23T02:05:04.167Z,5.33
2018-04-23T02:07:31.770Z,5.90
2018-04-23T02:09:59.544Z,5.80
2018-04-23T02:12:27.135Z,5.80
2018-04-23T02:14:54.740Z,5.00
2018-04-23T02:17:22.369Z,5.00
2018-04-23T02:19:49.971Z,6.40
2018-04-23T02:22:17.591Z,6.30
2018-04-23T02:24:45.185Z,5.97
2018-04-23T02:27:12.815Z,6.13
2018-04-23T02:29:40.410Z,5.43
2018-04-23T02:32:08.063Z,5.97
2018-04-23T02:34:35.678Z,5.73
2018-04-23T02:37:03.281Z,6.10
2018-04-23T02:39:30.930Z,6.20
2018-04-23T02:41:58.527Z,6.20
2018-04-23T02:44:26.113Z,6.17
2018-04-23T02:46:53.738Z,6.10
2018-04-23T02:49:21.433Z,6.97
2018-04-23T02:51:49.085Z,6.93
2018-04-23T02:54:16.683Z,6.40
2018-04-23T02:56:44.276Z,5.63
2018-04-23T02:59:11.905Z,5.57
2018-04-23T03:01:39.495Z,6.80
2018-04-23T03:04:07.109Z,6.33
2018-04-23T03:06:34.707Z,5.83
2018-04-23T03:09:02.463Z,6.00
2018-04-23T03:11:30.072Z,5.80
2018-04-23T03:13:57.674Z,6.77
2018-04-23T03:16:25.286Z,5.83
2018-04-23T03:18:52.871Z,6.70
2018-04-23T03:21:20.482Z,6.17
2018-04-23T03:23:48.076Z,5.30
2018-04-23T03:26:15.707Z,6.50
2018-04-23T03:28:43.327Z,6.47
2018-04-23T03:31:10.929Z,6.80
2018-04-23T03:33:38.550Z,5.73
2018-04-23T03:36:06.183Z,7.00
2018-04-23T03:38:34.014Z,6.50
2018-04-23T03:41:01.607Z,6.83
2018-04-23T03:43:29.200Z,6.00
2018-04-23T03:45:56.819Z,6.23
2018-04-23T03:48:24.406Z,5.77
2018-04-23T03:50:52.051Z,7.30
2018-04-23T03:53:19.637Z,5.33
2018-04-23T03:55:47.233Z,7.60
2018-04-23T03:58:14.944Z,6.17
2018-04-23T04:00:42.544Z,6.30
2018-04-23T04:03:10.181Z,7.20
2018-04-23T04:05:37.778Z,7.73
2018-04-23T04:08:05.376Z,6.67
2018-04-23T04:10:32.988Z,5.67
2018-04-23T04:13:12.335Z,6.43
2018-04-23T04:15:51.550Z,6.60
2018-04-23T04:18:40.015Z,6.60
2018-04-23T04:21:07.697Z,6.80
2018-04-23T04:23:35.310Z,6.93
2018-04-23T04:26:02.938Z,6.20
2018-04-23T04:28:32.299Z,6.37
2018-04-23T04:30:59.914Z,7.70
2018-04-23T04:33:27.507Z,7.10
2018-04-23T04:35:55.137Z,6.57
2018-04-23T04:38:22.746Z,7.40
2018-04-23T04:40:50.368Z,7.17
2018-04-23T04:43:17.994Z,6.20
2018-04-23T04:45:45.583Z,6.07
2018-04-23T04:48:13.218Z,7.00
2018-04-23T04:50:40.818Z,6.37
2018-04-23T04:53:08.435Z,6.20
2018-04-23T04:55:36.027Z,5.40
2018-04-23T04:58:03.655Z,6.10
2018-04-23T05:00:31.275Z,6.43
2018-04-23T05:02:58.886Z,6.50
2018-04-23T05:05:26.543Z,5.57
2018-04-23T05:07:54.133Z,7.07
2018-04-23T05:10:21.731Z,5.90
2018-04-23T05:12:49.347Z,5.73
2018-04-23T05:15:16.951Z,6.40
2018-04-23T05:17:44.606Z,5.30
2018-04-23T05:20:12.194Z,5.10
2018-04-23T05:22:39.802Z,5.67
2018-04-23T05:25:07.415Z,5.90
2018-04-23T05:27:35.007Z,6.03
2018-04-23T05:30:02.833Z,5.90
2018-04-23T05:32:30.384Z,5.70
2018-04-23T05:34:57.985Z,6.30
2018-04-23T05:37:25.612Z,5.97
2018-04-23T05:39:53.220Z,5.73
2018-04-23T05:42:21.070Z,5.87
2018-04-23T05:44:48.666Z,6.23
2018-04-23T05:47:16.258Z,6.10
2018-04-23T05:49:43.877Z,5.23
2018-04-23T05:52:11.479Z,5.77
2018-04-23T05:54:39.268Z,5.37
2018-04-23T05:57:06.877Z,6.70
2018-04-23T05:59:34.473Z,5.23
2018-04-23T06:02:02.099Z,5.50
2018-04-23T06:04:29.707Z,5.43
2018-04-23T06:06:57.591Z,4.73
2018-04-23T06:09:25.202Z,5.27
2018-04-23T06:11:52.877Z,5.67
2018-04-23T06:14:20.536Z,6.00
2018-04-23T06:16:48.115Z,4.83
2018-04-23T06:19:15.743Z,6.80
2018-04-23T06:21:43.429Z,4.93
2018-04-23T06:24:11.089Z,4.97
2018-04-23T06:26:38.902Z,5.13
2018-04-23T06:29:06.519Z,4.87
2018-04-23T06:31:34.140Z,5.97
2018-04-23T06:34:01.739Z,5.60
2018-04-23T06:36:29.762Z,5.40
2018-04-23T06:38:57.373Z,4.50
2018-04-23T06:41:25.219Z,5.07
2018-04-23T06:43:52.806Z,4.60
2018-04-23T06:46:20.453Z,4.90
2018-04-23T06:48:48.155Z,5.20
2018-04-23T06:51:15.778Z,5.47
2018-04-23T06:53:43.406Z,5.30
2018-04-23T06:56:11.006Z,5.10
2018-04-23T06:58:38.816Z,4.90
2018-04-23T07:01:06.428Z,4.97
2018-04-23T07:03:34.042Z,4.80
2018-04-23T07:06:01.699Z,4.60
2018-04-23T07:08:29.292Z,5.37
2018-04-23T07:10:56.915Z,5.87
2018-04-23T07:13:24.583Z,5.87
2018-04-23T07:15:52.248Z,5.20
2018-04-23T07:18:19.852Z,6.27
2018-04-23T07:20:47.456Z,4.87
2018-04-23T07:23:15.079Z,4.83
2018-04-23T07:25:42.685Z,4.17
2018-04-23T07:28:10.302Z,4.70
2018-04-23T07:30:37.898Z,3.93
2018-04-23T07:33:05.527Z,4.03
2018-04-23T07:35:33.127Z,4.10
2018-04-23T07:38:00.720Z,4.03
2018-04-23T07:40:28.355Z,4.83
2018-04-23T07:42:55.937Z,4.00
2018-04-23T07:45:23.566Z,3.80
2018-04-23T07:47:51.193Z,4.20
2018-04-23T07:50:18.840Z,4.93
2018-04-23T07:52:46.454Z,4.27
2018-04-23T07:55:14.064Z,5.40
2018-04-23T07:57:41.689Z,4.10
2018-04-23T08:00:09.410Z,3.97
2018-04-23T08:02:37.038Z,3.63
2018-04-23T08:05:04.645Z,4.30
2018-04-23T08:07:32.434Z,4.63
2018-04-23T08:10:00.052Z,3.93
2018-04-23T08:12:27.670Z,4.50
2018-04-23T08:14:55.286Z,5.40
2018-04-23T08:17:22.874Z,3.80
2018-04-23T08:19:50.499Z,4.10
2018-04-23T08:22:18.098Z,3.70
2018-04-23T08:24:46.071Z,3.50
2018-04-23T08:27:13.662Z,4.27
2018-04-23T08:29:41.250Z,5.37
2018-04-23T08:32:08.862Z,4.20
2018-04-23T08:34:36.458Z,4.50
2018-04-23T08:37:04.067Z,4.13
2018-04-23T08:39:31.666Z,4.77
2018-04-23T08:41:59.684Z,5.77
2018-04-23T08:44:27.290Z,5.43
2018-04-23T08:46:54.902Z,4.73
2018-04-23T08:49:22.514Z,4.33
2018-04-23T08:51:50.102Z,4.97
2018-04-23T08:54:17.719Z,4.97
2018-04-23T08:56:45.313Z,4.83
2018-04-23T08:59:13.151Z,5.90
2018-04-23T09:01:40.749Z,4.70
2018-04-23T09:04:08.359Z,5.30
2018-04-23T09:06:35.974Z,4.20
2018-04-23T09:09:03.577Z,4.93
2018-04-23T09:11:31.194Z,5.50
2018-04-23T09:13:58.800Z,6.20
2018-04-23T09:16:26.662Z,4.33
2018-04-23T09:18:54.260Z,4.93
2018-04-23T09:21:21.908Z,5.20
2018-04-23T09:23:49.535Z,4.50
2018-04-23T09:26:17.134Z,4.27
2018-04-23T09:28:44.797Z,6.17
2018-04-23T09:31:12.387Z,4.63
2018-04-23T09:33:40.022Z,5.30
2018-04-23T09:36:07.627Z,5.87
2018-04-23T09:38:35.230Z,4.30
2018-04-23T09:41:02.857Z,4.93
2018-04-23T09:43:30.476Z,5.33
2018-04-23T09:45:58.142Z,5.20
2018-04-23T09:48:25.767Z,6.03
2018-04-23T09:50:53.395Z,5.03
2018-04-23T09:53:21.007Z,4.10
2018-04-23T09:55:48.602Z,4.10
2018-04-23T09:58:16.221Z,6.00
2018-04-23T10:00:43.815Z,4.53
2018-04-23T10:03:11.670Z,5.90
2018-04-23T10:05:39.280Z,6.07
2018-04-23T10:08:06.880Z,5.40
2018-04-23T10:10:34.505Z,5.00
2018-04-23T10:13:02.149Z,4.10
2018-04-23T10:15:29.981Z,5.10
2018-04-23T10:17:57.598Z,3.37
2018-04-23T10:20:25.186Z,3.70
2018-04-23T10:22:52.806Z,3.60
2018-04-23T10:25:20.399Z,2.53
2018-04-23T10:27:48.046Z,3.63
2018-04-23T10:30:15.639Z,3.80
2018-04-23T10:32:43.435Z,2.83
2018-04-23T10:35:11.021Z,4.07
2018-04-23T10:37:38.618Z,2.80
2018-04-23T10:40:06.262Z,2.50
2018-04-23T10:42:33.874Z,3.00
2018-04-23T10:45:01.494Z,2.20
2018-04-23T10:47:29.090Z,2.30
2018-04-23T10:49:56.740Z,3.23
2018-04-23T10:52:24.353Z,2.80
2018-04-23T10:54:51.964Z,3.77
2018-04-23T10:57:19.599Z,4.93
2018-04-23T10:59:47.194Z,3.57
2018-04-23T11:02:14.823Z,4.73
2018-04-23T11:04:42.423Z,4.33
2018-04-23T11:07:10.153Z,3.10
2018-04-23T11:09:37.857Z,4.10
2018-04-23T11:12:05.460Z,5.73
2018-04-23T11:14:33.084Z,4.13
2018-04-23T11:17:00.699Z,4.10
2018-04-23T11:19:28.328Z,4.03
2018-04-23T11:21:55.930Z,4.30
2018-04-23T11:24:23.983Z,4.20
2018-04-23T11:26:51.588Z,4.07
2018-04-23T11:29:19.185Z,3.83
2018-04-23T11:31:46.796Z,4.60
2018-04-23T11:34:14.394Z,3.27
2018-04-23T11:36:42.149Z,3.93
2018-04-23T11:39:09.765Z,4.60
2018-04-23T11:41:37.502Z,3.67
2018-04-23T11:44:05.138Z,4.00
2018-04-23T11:46:32.776Z,3.43
2018-04-23T11:49:00.404Z,4.83
2018-04-23T11:51:28.008Z,3.50
2018-04-23T11:53:55.645Z,3.80
2018-04-23T11:56:23.253Z,4.57
2018-04-23T11:58:51.120Z,6.50
2018-04-23T12:01:18.721Z,4.60
2018-04-23T12:03:46.317Z,3.67
2018-04-23T12:06:13.935Z,4.53
2018-04-23T12:08:41.532Z,4.00
2018-04-23T12:11:09.165Z,4.63
2018-04-23T12:13:36.759Z,4.10
2018-04-23T12:16:04.458Z,4.30
2018-04-23T12:18:32.084Z,4.10
2018-04-23T12:20:59.673Z,4.13
2018-04-23T12:23:27.303Z,4.97
2018-04-23T12:25:54.922Z,4.27
2018-04-23T12:28:22.559Z,3.93
2018-04-23T12:30:50.155Z,3.80
2018-04-23T12:33:17.960Z,3.37
2018-04-23T12:35:45.562Z,3.57
2018-04-23T12:38:13.183Z,3.83
2018-04-23T12:40:40.788Z,4.90
2018-04-23T12:43:08.415Z,3.20
2018-04-23T12:45:36.012Z,2.60
2018-04-23T12:48:03.658Z,3.27
2018-04-23T12:50:31.250Z,3.50
2018-04-23T12:52:58.848Z,2.67
2018-04-23T12:55:26.468Z,3.80
2018-04-23T12:57:54.069Z,3.77
2018-04-23T13:00:21.738Z,3.90
2018-04-23T13:02:49.358Z,3.50
2018-04-23T13:05:17.250Z,4.63
2018-04-23T13:07:44.860Z,3.10
2018-04-23T13:10:12.474Z,3.17
2018-04-23T13:12:40.092Z,3.17
2018-04-23T13:15:07.695Z,3.57
2018-04-23T13:17:35.338Z,3.00
2018-04-23T13:20:02.960Z,2.70
2018-04-23T13:22:30.790Z,3.80
2018-04-23T13:24:58.378Z,3.70
2018-04-23T13:27:25.975Z,3.73
2018-04-23T13:29:53.587Z,3.47
2018-04-23T13:32:21.208Z,4.03
2018-04-23T13:34:48.834Z,4.57
2018-04-23T13:37:16.430Z,4.00
2018-04-23T13:39:44.059Z,4.27
2018-04-23T13:42:11.650Z,4.10
2018-04-23T13:44:39.276Z,3.63
2018-04-23T13:47:06.899Z,4.77
2018-04-23T13:49:34.511Z,5.23
2018-04-23T13:52:02.157Z,3.70
2018-04-23T13:54:29.804Z,5.70
2018-04-23T13:56:57.434Z,3.80
2018-04-23T13:59:25.027Z,3.90
2018-04-23T14:01:52.691Z,4.47
2018-04-23T14:04:20.285Z,4.03
2018-04-23T14:06:47.895Z,4.40
2018-04-23T14:09:15.521Z,4.33
2018-04-23T14:11:43.115Z,6.03
2018-04-23T14:14:10.733Z,3.90
2018-04-23T14:16:38.327Z,4.57
2018-04-23T14:19:06.061Z,3.63
2018-04-23T14:21:33.676Z,3.80
2018-04-23T14:24:01.273Z,4.37
2018-04-23T14:26:28.906Z,3.70
2018-04-23T14:28:56.510Z,5.40
2018-04-23T14:31:24.135Z,4.10
2018-04-23T14:33:51.728Z,5.87
2018-04-23T14:36:20.268Z,4.40
2018-04-23T14:38:47.868Z,5.50
2018-04-23T14:41:15.470Z,4.37
2018-04-23T14:43:43.088Z,5.07
2018-04-23T14:46:10.809Z,4.40
2018-04-23T14:48:38.441Z,4.67
2018-04-23T14:51:06.036Z,4.40
2018-04-23T14:53:34.119Z,4.33
2018-04-23T14:56:01.777Z,4.80
2018-04-23T14:58:29.379Z,4.37
2018-04-23T15:00:57.008Z,5.63
2018-04-23T15:03:24.612Z,4.57
2018-04-23T15:05:52.245Z,4.70
2018-04-23T15:08:19.880Z,5.60
2018-04-23T15:10:47.635Z,5.73
2018-04-23T15:13:15.241Z,4.93
2018-04-23T15:15:42.834Z,4.77
2018-04-23T15:18:10.465Z,3.67
2018-04-23T15:20:38.078Z,4.73
2018-04-23T15:23:05.754Z,5.43
2018-04-23T15:25:33.344Z,3.63
2018-04-23T15:28:00.991Z,4.83
2018-04-23T15:30:28.637Z,4.30
2018-04-23T15:32:56.253Z,4.90
2018-04-23T15:35:23.874Z,4.80
2018-04-23T15:37:51.471Z,5.70
2018-04-23T15:40:19.074Z,4.03
2018-04-23T15:42:46.667Z,6.33
2018-04-23T15:45:14.403Z,4.90
2018-04-23T15:47:42.010Z,4.97
2018-04-23T15:50:09.622Z,4.37
2018-04-23T15:52:37.237Z,4.70
2018-04-23T15:55:04.878Z,4.73
2018-04-23T15:57:32.507Z,4.37
2018-04-23T16:00:00.099Z,4.30
2018-04-23T16:02:27.915Z,4.77
2018-04-23T16:04:55.513Z,4.50
2018-04-23T16:07:23.166Z,3.83
2018-04-23T16:09:50.801Z,4.50
2018-04-23T16:12:18.387Z,4.70
2018-04-23T16:14:46.010Z,4.63
2018-04-23T16:17:13.603Z,6.23
2018-04-23T16:19:41.579Z,5.63
2018-04-23T16:22:09.184Z,4.23
2018-04-23T16:24:36.812Z,5.00
2018-04-23T16:27:04.430Z,5.70
2018-04-23T16:29:32.026Z,5.50
2018-04-23T16:31:59.650Z,4.57
2018-04-23T16:34:27.330Z,5.10
2018-04-23T16:36:54.975Z,4.67
2018-04-23T16:39:22.583Z,4.97
2018-04-23T16:41:50.192Z,5.27
2018-04-23T16:44:17.817Z,5.00
2018-04-23T16:46:45.430Z,6.53
2018-04-23T16:49:13.062Z,6.17
2018-04-23T16:51:40.670Z,5.63
2018-04-23T16:54:08.856Z,5.97
2018-04-23T16:56:36.451Z,5.73
2018-04-23T16:59:04.081Z,5.47
2018-04-23T17:01:31.706Z,5.63
2018-04-23T17:03:59.302Z,6.90
2018-04-23T17:06:27.019Z,4.80
2018-04-23T17:08:54.615Z,5.67
2018-04-23T17:11:22.427Z,5.90
2018-04-23T17:13:50.021Z,6.07
2018-04-23T17:16:17.614Z,4.77
2018-04-23T17:18:45.287Z,4.93
2018-04-23T17:21:12.852Z,5.30
2018-04-23T17:23:40.471Z,5.80
2018-04-23T17:26:08.062Z,5.00
2018-04-23T17:28:35.824Z,6.33
2018-04-23T17:31:03.427Z,5.90
2018-04-23T17:33:31.039Z,5.93
2018-04-23T17:35:58.670Z,5.13
2018-04-23T17:38:26.405Z,7.07
2018-04-23T17:40:54.022Z,6.07
2018-04-23T17:43:21.638Z,6.10
2018-04-23T17:45:49.454Z,7.13
2018-04-23T17:48:17.060Z,6.43
2018-04-23T17:50:44.659Z,5.17
2018-04-23T17:53:12.285Z,5.67
2018-04-23T17:55:39.883Z,6.53
2018-04-23T17:58:07.497Z,6.50
2018-04-23T18:00:35.091Z,5.00
2018-04-23T18:03:03.004Z,6.80
2018-04-23T18:05:30.614Z,5.30
2018-04-23T18:07:58.206Z,5.87
2018-04-23T18:10:25.830Z,6.73
2018-04-23T18:12:53.421Z,6.23
2018-04-23T18:15:21.038Z,6.23
2018-04-23T18:17:48.640Z,5.30
2018-04-23T18:20:16.272Z,4.90
2018-04-23T18:22:43.899Z,5.53
2018-04-23T18:25:11.491Z,6.07
2018-04-23T18:27:39.115Z,5.33
2018-04-23T18:30:06.721Z,5.33
2018-04-23T18:32:34.345Z,6.60
2018-04-23T18:35:01.940Z,5.43
2018-04-23T18:37:29.542Z,7.03
2018-04-23T18:39:57.154Z,5.40
2018-04-23T18:42:24.746Z,4.70
2018-04-23T18:44:52.378Z,5.83
2018-04-23T18:47:20.012Z,7.13
2018-04-23T18:49:47.656Z,4.80
2018-04-23T18:52:15.264Z,5.10
2018-04-23T18:54:42.851Z,5.13
2018-04-23T18:57:10.476Z,4.87
2018-04-23T18:59:38.074Z,4.43
2018-04-23T19:02:05.705Z,4.23
2018-04-23T19:04:33.331Z,3.97
2018-04-23T19:07:01.403Z,2.57
2018-04-23T19:09:28.988Z,2.77
2018-04-23T19:11:56.579Z,2.60
2018-04-23T19:14:24.203Z,2.80
2018-04-23T19:16:51.810Z,2.40
2018-04-23T19:19:19.429Z,2.73
2018-04-23T19:21:47.111Z,2.70
2018-04-23T19:24:14.716Z,2.63
2018-04-23T19:26:42.338Z,2.13
2018-04-23T19:29:09.942Z,2.10
2018-04-23T19:31:37.574Z,2.60
2018-04-23T19:34:05.179Z,1.87
2018-04-23T19:36:32.799Z,3.20
2018-04-23T19:39:00.394Z,2.50
2018-04-23T19:41:28.006Z,2.13
2018-04-23T19:43:55.604Z,2.17
2018-04-23T19:46:23.296Z,2.47
2018-04-23T19:48:50.828Z,2.00
2018-04-23T19:51:18.430Z,2.33
2018-04-23T19:53:46.026Z,2.43
2018-04-23T19:56:13.648Z,3.20
2018-04-23T19:58:41.250Z,2.47
2018-04-23T20:01:09.065Z,3.20
2018-04-23T20:03:36.665Z,2.20
2018-04-23T20:06:04.255Z,2.40
2018-04-23T20:08:31.867Z,2.10
2018-04-23T20:10:59.464Z,2.00
2018-04-23T20:13:27.098Z,2.77
2018-04-23T20:15:54.701Z,2.23
2018-04-23T20:18:22.326Z,3.50
2018-04-23T20:20:49.922Z,2.13
2018-04-23T20:23:17.610Z,4.43
2018-04-23T20:25:45.146Z,1.80
2018-04-23T20:28:12.767Z,2.83
2018-04-23T20:30:40.367Z,2.73
2018-04-23T20:33:08.025Z,2.77
2018-04-23T20:35:41.507Z,2.87
2018-04-23T20:38:09.330Z,3.00
2018-04-23T20:40:36.928Z,2.60
2018-04-23T20:43:04.522Z,2.90
2018-04-23T20:45:32.144Z,2.73
2018-04-23T20:47:59.738Z,3.33
2018-04-23T20:50:27.351Z,3.10
2018-04-23T20:52:54.953Z,3.23
2018-04-23T20:55:22.859Z,4.53
2018-04-23T20:57:50.479Z,3.80
2018-04-23T21:00:18.218Z,4.13
2018-04-23T21:02:45.851Z,4.80
2018-04-23T21:05:13.459Z,5.40
2018-04-23T21:07:41.074Z,4.93
2018-04-23T21:10:08.698Z,5.70
2018-04-23T21:12:36.608Z,5.63
2018-04-23T21:15:04.211Z,6.00
2018-04-23T21:17:31.796Z,4.83
2018-04-23T21:19:59.436Z,6.00
2018-04-23T21:22:27.137Z,4.50
2018-04-23T21:24:54.707Z,5.93
2018-04-23T21:27:22.319Z,6.10
2018-04-23T21:29:50.274Z,6.50
2018-04-23T21:32:17.870Z,6.73
2018-04-23T21:34:45.480Z,6.10
2018-04-23T21:37:13.143Z,6.97
2018-04-23T21:39:40.734Z,7.10
2018-04-23T21:42:08.354Z,7.47
2018-04-23T21:44:35.957Z,7.20
2018-04-23T21:47:03.973Z,7.67
2018-04-23T21:49:31.574Z,8.47
2018-04-23T21:51:59.170Z,7.87
2018-04-23T21:54:26.799Z,9.77
2018-04-23T21:56:54.508Z,8.97
2018-04-23T21:59:22.202Z,9.50
2018-04-23T22:01:49.807Z,9.37
2018-04-23T22:04:17.716Z,9.20
2018-04-23T22:06:45.387Z,8.47
2018-04-23T22:09:12.991Z,8.90
2018-04-23T22:11:40.598Z,9.77
2018-04-23T22:14:08.218Z,9.00
2018-04-23T22:16:35.839Z,9.17
2018-04-23T22:19:03.453Z,11.00
2018-04-23T22:21:31.074Z,10.13
2018-04-23T22:23:58.672Z,10.30
2018-04-23T22:26:26.317Z,9.70
2018-04-23T22:28:53.917Z,10.50
2018-04-23T22:31:21.526Z,9.80
2018-04-23T22:33:49.149Z,9.80
2018-04-23T22:36:16.750Z,10.17
2018-04-23T22:38:44.396Z,11.47
2018-04-23T22:41:11.994Z,11.00
2018-04-23T22:43:39.590Z,9.80
2018-04-23T22:46:07.215Z,10.90
2018-04-23T22:48:34.818Z,10.63
2018-04-23T22:51:02.592Z,11.40
2018-04-23T22:53:30.197Z,10.33
2018-04-23T22:55:57.807Z,11.03
2018-04-23T22:58:25.499Z,11.90
2018-04-23T23:00:53.078Z,9.93
2018-04-23T23:03:20.704Z,11.30
2018-04-23T23:05:48.308Z,12.97
2018-04-23T23:08:15.920Z,9.20
2018-04-23T23:10:43.519Z,12.37
2018-04-23T23:13:11.247Z,12.80
2018-04-23T23:15:38.848Z,10.60
2018-04-23T23:18:06.459Z,12.10
2018-04-23T23:20:34.083Z,11.30
2018-04-23T23:23:01.691Z,10.87
2018-04-23T23:25:29.314Z,10.47
2018-04-23T23:27:56.910Z,10.97
2018-04-23T23:30:24.546Z,10.20
2018-04-23T23:32:52.181Z,10.40
2018-04-23T23:35:19.771Z,10.67
2018-04-23T23:37:47.394Z,11.20
2018-04-23T23:40:15.001Z,10.17
2018-04-23T23:42:42.623Z,11.33
2018-04-23T23:45:10.218Z,11.67
2018-04-23T23:47:37.982Z,9.20
2018-04-23T23:50:05.590Z,11.73
2018-04-23T23:52:33.208Z,11.43
2018-04-23T23:55:00.834Z,12.10
2018-04-23T23:57:28.438Z,11.37
2018-04-23T23:59:56.063Z,10.27
